Etusivu
METAR-TAF:

METAR-TAF

Lentoasemat :

Carrollton, Georgia, Yhdysvallat

Leveyspiiri: 33-37-54N, Pituuspiiri: 085-09-08W, korkeus merenpinnasta: 354 m

Tämänhetkinen sää

Tämä raportti tehtiin 5 minuuttia sitten, kello 08.35 UTC
tyyntä
Lämpötila 3°C
Kosteus 93%
Ilmanpaine 1025 hPa
Näkyvyys: 16.1 km
selkeää

METAR: KCTJ 210835Z AUTO 00000KT 10SM CLR 03/02 A3027 RMK AO2 T00300022

Aika: 03:40 (08:40 UTC)


TAF: puuttuu

Säähavainnot ja -ennusteet yli 4000 lentoasemalta (METAR- ja TAF-raportit).

Käytössä olevat sääasemat on merkitty karttaan keltaisilla ja punaisilla pisteillä.

Aseta hiiri pisteen päälle nähdäksesi sääaseman nimen.

Klikkaa sitten nähdäksesi säähavainnot ja -ennusteet.

Kartan vaihtaminen: klikkaa mustalla rastilla varustettuja vihreitä pisteitä, niin voit zoomata sisään; viivalla varustettua vihreää pistettä, niin voit zoomata ulos tai vihreitä nuolia, niin pääset viereisille kartoille.


METAR-TAF: